<?xml version="1.0" encoding="utf-8"?>
<gpx xmlns:xsi="http://www.w3.org/2001/XMLSchema-instance" xmlns:xsd="http://www.w3.org/2001/XMLSchema" version="1.1" creator="Shapelink.com" xmlns="http://www.topografix.com/GPX/1/1" xmlns:gpxtpx="http://www.garmin.com/xmlschemas/TrackPointExtension/v1">
  <metadata>
    <name>Löpning 4.54 km, 2011-08-11</name>
    <desc></desc>
    <author><name>Alexander Engvall</name></author> 
    <time>2011-08-11T21:44:49Z</time>
  </metadata>
  <trk>
    <name>Löpning 4.54 km, 2011-08-11</name>
    <trkseg>
      <trkpt lat="59.4103124" lon="17.7678307">
        <ele>29.9381</ele>
        <time>2011-08-11T21:44:49Z</time>
      </trkpt>
      <trkpt lat="59.4102689" lon="17.7677744">
        <ele>29.4575</ele>
        <time>2011-08-11T21:44:51Z</time>
      </trkpt>
      <trkpt lat="59.410105" lon="17.7677366">
        <ele>29.4575</ele>
        <time>2011-08-11T21:44:56Z</time>
      </trkpt>
      <trkpt lat="59.4099533" lon="17.7677651">
        <ele>30.4188</ele>
        <time>2011-08-11T21:45:00Z</time>
      </trkpt>
      <trkpt lat="59.4098467" lon="17.7680029">
        <ele>36.1868</ele>
        <time>2011-08-11T21:45:05Z</time>
      </trkpt>
      <trkpt lat="59.4098467" lon="17.7682534">
        <ele>36.6675</ele>
        <time>2011-08-11T21:45:09Z</time>
      </trkpt>
      <trkpt lat="59.40984" lon="17.7684799">
        <ele>37.1481</ele>
        <time>2011-08-11T21:45:13Z</time>
      </trkpt>
      <trkpt lat="59.4096704" lon="17.768639">
        <ele>39.0707</ele>
        <time>2011-08-11T21:45:18Z</time>
      </trkpt>
      <trkpt lat="59.4094859" lon="17.768713">
        <ele>41.474</ele>
        <time>2011-08-11T21:45:23Z</time>
      </trkpt>
      <trkpt lat="59.4093238" lon="17.7686698">
        <ele>42.4354</ele>
        <time>2011-08-11T21:45:27Z</time>
      </trkpt>
      <trkpt lat="59.4092318" lon="17.7685168">
        <ele>41.9547</ele>
        <time>2011-08-11T21:45:31Z</time>
      </trkpt>
      <trkpt lat="59.4092126" lon="17.7684645">
        <ele>41.474</ele>
        <time>2011-08-11T21:45:32Z</time>
      </trkpt>
      <trkpt lat="59.4091283" lon="17.7681681">
        <ele>41.9547</ele>
        <time>2011-08-11T21:45:37Z</time>
      </trkpt>
      <trkpt lat="59.4090225" lon="17.7680738">
        <ele>42.4354</ele>
        <time>2011-08-11T21:45:41Z</time>
      </trkpt>
      <trkpt lat="59.4089034" lon="17.7679561">
        <ele>43.3966</ele>
        <time>2011-08-11T21:45:45Z</time>
      </trkpt>
      <trkpt lat="59.4087651" lon="17.7678101">
        <ele>42.916</ele>
        <time>2011-08-11T21:45:50Z</time>
      </trkpt>
      <trkpt lat="59.4086379" lon="17.7677237">
        <ele>40.9934</ele>
        <time>2011-08-11T21:45:54Z</time>
      </trkpt>
      <trkpt lat="59.4084687" lon="17.7677134">
        <ele>39.0707</ele>
        <time>2011-08-11T21:45:59Z</time>
      </trkpt>
      <trkpt lat="59.4083501" lon="17.7677832">
        <ele>37.1481</ele>
        <time>2011-08-11T21:46:02Z</time>
      </trkpt>
      <trkpt lat="59.4082232" lon="17.7678659">
        <ele>38.1094</ele>
        <time>2011-08-11T21:46:06Z</time>
      </trkpt>
      <trkpt lat="59.4079913" lon="17.767979">
        <ele>38.5901</ele>
        <time>2011-08-11T21:46:12Z</time>
      </trkpt>
      <trkpt lat="59.4078097" lon="17.7680873">
        <ele>39.5513</ele>
        <time>2011-08-11T21:46:17Z</time>
      </trkpt>
      <trkpt lat="59.4076186" lon="17.768207">
        <ele>41.9547</ele>
        <time>2011-08-11T21:46:22Z</time>
      </trkpt>
      <trkpt lat="59.4074341" lon="17.7682912">
        <ele>42.4354</ele>
        <time>2011-08-11T21:46:27Z</time>
      </trkpt>
      <trkpt lat="59.4072975" lon="17.7683067">
        <ele>41.9547</ele>
        <time>2011-08-11T21:46:31Z</time>
      </trkpt>
      <trkpt lat="59.4071262" lon="17.7684432">
        <ele>43.8773</ele>
        <time>2011-08-11T21:46:36Z</time>
      </trkpt>
      <trkpt lat="59.4070406" lon="17.7685738">
        <ele>44.358</ele>
        <time>2011-08-11T21:46:40Z</time>
      </trkpt>
      <trkpt lat="59.4069221" lon="17.7689587">
        <ele>47.7225</ele>
        <time>2011-08-11T21:46:47Z</time>
      </trkpt>
      <trkpt lat="59.4068717" lon="17.7691497">
        <ele>46.2806</ele>
        <time>2011-08-11T21:46:51Z</time>
      </trkpt>
      <trkpt lat="59.4067733" lon="17.769404">
        <ele>47.2418</ele>
        <time>2011-08-11T21:46:56Z</time>
      </trkpt>
      <trkpt lat="59.4066836" lon="17.7697019">
        <ele>49.6453</ele>
        <time>2011-08-11T21:47:01Z</time>
      </trkpt>
      <trkpt lat="59.4066024" lon="17.7699726">
        <ele>48.2034</ele>
        <time>2011-08-11T21:47:06Z</time>
      </trkpt>
      <trkpt lat="59.4064956" lon="17.7702411">
        <ele>48.684</ele>
        <time>2011-08-11T21:47:11Z</time>
      </trkpt>
      <trkpt lat="59.4063774" lon="17.7704457">
        <ele>48.2034</ele>
        <time>2011-08-11T21:47:15Z</time>
      </trkpt>
      <trkpt lat="59.4063041" lon="17.7706266">
        <ele>44.8386</ele>
        <time>2011-08-11T21:47:19Z</time>
      </trkpt>
      <trkpt lat="59.4062216" lon="17.7708845">
        <ele>42.916</ele>
        <time>2011-08-11T21:47:24Z</time>
      </trkpt>
      <trkpt lat="59.4061068" lon="17.771106">
        <ele>46.2806</ele>
        <time>2011-08-11T21:47:29Z</time>
      </trkpt>
      <trkpt lat="59.4059879" lon="17.7713035">
        <ele>46.2806</ele>
        <time>2011-08-11T21:47:34Z</time>
      </trkpt>
      <trkpt lat="59.4058776" lon="17.7714936">
        <ele>44.358</ele>
        <time>2011-08-11T21:47:38Z</time>
      </trkpt>
      <trkpt lat="59.4057744" lon="17.7716707">
        <ele>44.358</ele>
        <time>2011-08-11T21:47:43Z</time>
      </trkpt>
      <trkpt lat="59.4056098" lon="17.7719206">
        <ele>44.8386</ele>
        <time>2011-08-11T21:47:49Z</time>
      </trkpt>
      <trkpt lat="59.4054652" lon="17.7720759">
        <ele>41.474</ele>
        <time>2011-08-11T21:47:54Z</time>
      </trkpt>
      <trkpt lat="59.405312" lon="17.7722014">
        <ele>40.0321</ele>
        <time>2011-08-11T21:47:59Z</time>
      </trkpt>
      <trkpt lat="59.4051162" lon="17.7723431">
        <ele>41.474</ele>
        <time>2011-08-11T21:48:04Z</time>
      </trkpt>
      <trkpt lat="59.4049971" lon="17.7724948">
        <ele>43.3966</ele>
        <time>2011-08-11T21:48:08Z</time>
      </trkpt>
      <trkpt lat="59.4049079" lon="17.7726717">
        <ele>43.3966</ele>
        <time>2011-08-11T21:48:12Z</time>
      </trkpt>
      <trkpt lat="59.4047619" lon="17.7729795">
        <ele>45.3192</ele>
        <time>2011-08-11T21:48:17Z</time>
      </trkpt>
      <trkpt lat="59.4046883" lon="17.7731128">
        <ele>44.358</ele>
        <time>2011-08-11T21:48:21Z</time>
      </trkpt>
      <trkpt lat="59.4045524" lon="17.7733896">
        <ele>46.2806</ele>
        <time>2011-08-11T21:48:27Z</time>
      </trkpt>
      <trkpt lat="59.4044159" lon="17.7736329">
        <ele>48.2034</ele>
        <time>2011-08-11T21:48:32Z</time>
      </trkpt>
      <trkpt lat="59.4043284" lon="17.773847">
        <ele>49.1646</ele>
        <time>2011-08-11T21:48:36Z</time>
      </trkpt>
      <trkpt lat="59.404203" lon="17.7740696">
        <ele>45.3192</ele>
        <time>2011-08-11T21:48:41Z</time>
      </trkpt>
      <trkpt lat="59.4040707" lon="17.7742763">
        <ele>45.3192</ele>
        <time>2011-08-11T21:48:45Z</time>
      </trkpt>
      <trkpt lat="59.4039565" lon="17.7745482">
        <ele>40.0321</ele>
        <time>2011-08-11T21:48:49Z</time>
      </trkpt>
      <trkpt lat="59.4038795" lon="17.7747126">
        <ele>41.474</ele>
        <time>2011-08-11T21:48:52Z</time>
      </trkpt>
      <trkpt lat="59.4037662" lon="17.7749401">
        <ele>46.2806</ele>
        <time>2011-08-11T21:48:56Z</time>
      </trkpt>
      <trkpt lat="59.4036071" lon="17.7752994">
        <ele>51.0872</ele>
        <time>2011-08-11T21:49:02Z</time>
      </trkpt>
      <trkpt lat="59.4035213" lon="17.7754825">
        <ele>49.6453</ele>
        <time>2011-08-11T21:49:06Z</time>
      </trkpt>
      <trkpt lat="59.4034145" lon="17.7757762">
        <ele>49.6453</ele>
        <time>2011-08-11T21:49:12Z</time>
      </trkpt>
      <trkpt lat="59.4035042" lon="17.7759548">
        <ele>45.7999</ele>
        <time>2011-08-11T21:49:17Z</time>
      </trkpt>
      <trkpt lat="59.4036176" lon="17.7760262">
        <ele>40.9934</ele>
        <time>2011-08-11T21:49:22Z</time>
      </trkpt>
      <trkpt lat="59.4037133" lon="17.7759912">
        <ele>40.0321</ele>
        <time>2011-08-11T21:49:25Z</time>
      </trkpt>
      <trkpt lat="59.4038409" lon="17.7758864">
        <ele>36.6675</ele>
        <time>2011-08-11T21:49:30Z</time>
      </trkpt>
      <trkpt lat="59.4039051" lon="17.7758392">
        <ele>35.7061</ele>
        <time>2011-08-11T21:49:32Z</time>
      </trkpt>
      <trkpt lat="59.4040262" lon="17.7756257">
        <ele>35.7061</ele>
        <time>2011-08-11T21:49:38Z</time>
      </trkpt>
      <trkpt lat="59.4041227" lon="17.7753885">
        <ele>35.7061</ele>
        <time>2011-08-11T21:49:43Z</time>
      </trkpt>
      <trkpt lat="59.4042729" lon="17.7752431">
        <ele>34.2642</ele>
        <time>2011-08-11T21:49:48Z</time>
      </trkpt>
      <trkpt lat="59.4043968" lon="17.7751629">
        <ele>33.7834</ele>
        <time>2011-08-11T21:49:52Z</time>
      </trkpt>
      <trkpt lat="59.4045664" lon="17.7750695">
        <ele>32.8223</ele>
        <time>2011-08-11T21:49:58Z</time>
      </trkpt>
      <trkpt lat="59.4046422" lon="17.7749143">
        <ele>34.7449</ele>
        <time>2011-08-11T21:50:02Z</time>
      </trkpt>
      <trkpt lat="59.4047313" lon="17.7746855">
        <ele>35.7061</ele>
        <time>2011-08-11T21:50:07Z</time>
      </trkpt>
      <trkpt lat="59.4047979" lon="17.774493">
        <ele>37.1481</ele>
        <time>2011-08-11T21:50:11Z</time>
      </trkpt>
      <trkpt lat="59.4048333" lon="17.7743286">
        <ele>38.1094</ele>
        <time>2011-08-11T21:50:14Z</time>
      </trkpt>
      <trkpt lat="59.4049602" lon="17.7741816">
        <ele>38.1094</ele>
        <time>2011-08-11T21:50:19Z</time>
      </trkpt>
      <trkpt lat="59.4050746" lon="17.7741761">
        <ele>38.5901</ele>
        <time>2011-08-11T21:50:23Z</time>
      </trkpt>
      <trkpt lat="59.4051716" lon="17.7742299">
        <ele>39.0707</ele>
        <time>2011-08-11T21:50:27Z</time>
      </trkpt>
      <trkpt lat="59.4052852" lon="17.7743044">
        <ele>40.9934</ele>
        <time>2011-08-11T21:50:32Z</time>
      </trkpt>
      <trkpt lat="59.4053131" lon="17.7743138">
        <ele>41.474</ele>
        <time>2011-08-11T21:50:33Z</time>
      </trkpt>
      <trkpt lat="59.4054528" lon="17.7743946">
        <ele>46.7612</ele>
        <time>2011-08-11T21:50:38Z</time>
      </trkpt>
      <trkpt lat="59.4055449" lon="17.7744536">
        <ele>48.684</ele>
        <time>2011-08-11T21:50:41Z</time>
      </trkpt>
      <trkpt lat="59.4056706" lon="17.7745508">
        <ele>49.6453</ele>
        <time>2011-08-11T21:50:46Z</time>
      </trkpt>
      <trkpt lat="59.4058039" lon="17.7747021">
        <ele>51.0872</ele>
        <time>2011-08-11T21:50:52Z</time>
      </trkpt>
      <trkpt lat="59.4059689" lon="17.7747927">
        <ele>51.0872</ele>
        <time>2011-08-11T21:50:58Z</time>
      </trkpt>
      <trkpt lat="59.4060611" lon="17.7748173">
        <ele>52.0486</ele>
        <time>2011-08-11T21:51:02Z</time>
      </trkpt>
      <trkpt lat="59.4062277" lon="17.7747169">
        <ele>53.0098</ele>
        <time>2011-08-11T21:51:08Z</time>
      </trkpt>
      <trkpt lat="59.4064107" lon="17.7746618">
        <ele>52.0486</ele>
        <time>2011-08-11T21:51:13Z</time>
      </trkpt>
      <trkpt lat="59.4065314" lon="17.7745785">
        <ele>53.0098</ele>
        <time>2011-08-11T21:51:17Z</time>
      </trkpt>
      <trkpt lat="59.4066464" lon="17.7744661">
        <ele>53.0098</ele>
        <time>2011-08-11T21:51:21Z</time>
      </trkpt>
      <trkpt lat="59.4068054" lon="17.7744049">
        <ele>53.4905</ele>
        <time>2011-08-11T21:51:27Z</time>
      </trkpt>
      <trkpt lat="59.4070042" lon="17.7745251">
        <ele>55.4131</ele>
        <time>2011-08-11T21:51:34Z</time>
      </trkpt>
      <trkpt lat="59.4071121" lon="17.7745952">
        <ele>55.8938</ele>
        <time>2011-08-11T21:51:38Z</time>
      </trkpt>
      <trkpt lat="59.4072835" lon="17.7746675">
        <ele>58.7777</ele>
        <time>2011-08-11T21:51:43Z</time>
      </trkpt>
      <trkpt lat="59.4074653" lon="17.7747309">
        <ele>60.7003</ele>
        <time>2011-08-11T21:51:48Z</time>
      </trkpt>
      <trkpt lat="59.4075836" lon="17.7748239">
        <ele>61.6617</ele>
        <time>2011-08-11T21:51:52Z</time>
      </trkpt>
      <trkpt lat="59.4077327" lon="17.7749804">
        <ele>63.1036</ele>
        <time>2011-08-11T21:51:57Z</time>
      </trkpt>
      <trkpt lat="59.4079014" lon="17.7751716">
        <ele>64.0651</ele>
        <time>2011-08-11T21:52:02Z</time>
      </trkpt>
      <trkpt lat="59.4080295" lon="17.7753648">
        <ele>65.0264</ele>
        <time>2011-08-11T21:52:07Z</time>
      </trkpt>
      <trkpt lat="59.4081637" lon="17.7754877">
        <ele>65.0264</ele>
        <time>2011-08-11T21:52:11Z</time>
      </trkpt>
      <trkpt lat="59.4082928" lon="17.7756192">
        <ele>64.0651</ele>
        <time>2011-08-11T21:52:16Z</time>
      </trkpt>
      <trkpt lat="59.4084339" lon="17.7756264">
        <ele>60.7003</ele>
        <time>2011-08-11T21:52:21Z</time>
      </trkpt>
      <trkpt lat="59.4085647" lon="17.7755894">
        <ele>59.2584</ele>
        <time>2011-08-11T21:52:25Z</time>
      </trkpt>
      <trkpt lat="59.4086931" lon="17.7755518">
        <ele>56.3745</ele>
        <time>2011-08-11T21:52:29Z</time>
      </trkpt>
      <trkpt lat="59.4088391" lon="17.7754264">
        <ele>54.4518</ele>
        <time>2011-08-11T21:52:34Z</time>
      </trkpt>
      <trkpt lat="59.4089943" lon="17.7753454">
        <ele>53.0098</ele>
        <time>2011-08-11T21:52:38Z</time>
      </trkpt>
      <trkpt lat="59.4091819" lon="17.7753278">
        <ele>51.0872</ele>
        <time>2011-08-11T21:52:43Z</time>
      </trkpt>
      <trkpt lat="59.4093037" lon="17.7753922">
        <ele>51.0872</ele>
        <time>2011-08-11T21:52:47Z</time>
      </trkpt>
      <trkpt lat="59.4094296" lon="17.7755854">
        <ele>52.5292</ele>
        <time>2011-08-11T21:52:51Z</time>
      </trkpt>
      <trkpt lat="59.4094732" lon="17.7756367">
        <ele>53.9712</ele>
        <time>2011-08-11T21:52:53Z</time>
      </trkpt>
      <trkpt lat="59.4095975" lon="17.7755103">
        <ele>54.9324</ele>
        <time>2011-08-11T21:52:58Z</time>
      </trkpt>
      <trkpt lat="59.4096472" lon="17.775341">
        <ele>54.9324</ele>
        <time>2011-08-11T21:53:01Z</time>
      </trkpt>
      <trkpt lat="59.4096768" lon="17.7752332">
        <ele>55.4131</ele>
        <time>2011-08-11T21:53:03Z</time>
      </trkpt>
      <trkpt lat="59.4097497" lon="17.7750188">
        <ele>55.4131</ele>
        <time>2011-08-11T21:53:07Z</time>
      </trkpt>
      <trkpt lat="59.4098459" lon="17.7747436">
        <ele>53.0098</ele>
        <time>2011-08-11T21:53:12Z</time>
      </trkpt>
      <trkpt lat="59.4099948" lon="17.7744405">
        <ele>49.6453</ele>
        <time>2011-08-11T21:53:18Z</time>
      </trkpt>
      <trkpt lat="59.4100637" lon="17.7742071">
        <ele>47.2418</ele>
        <time>2011-08-11T21:53:22Z</time>
      </trkpt>
      <trkpt lat="59.4100787" lon="17.773881">
        <ele>45.7999</ele>
        <time>2011-08-11T21:53:27Z</time>
      </trkpt>
      <trkpt lat="59.4100438" lon="17.7736191">
        <ele>44.8386</ele>
        <time>2011-08-11T21:53:31Z</time>
      </trkpt>
      <trkpt lat="59.4100109" lon="17.773261">
        <ele>45.7999</ele>
        <time>2011-08-11T21:53:36Z</time>
      </trkpt>
      <trkpt lat="59.4099476" lon="17.7729771">
        <ele>45.7999</ele>
        <time>2011-08-11T21:53:40Z</time>
      </trkpt>
      <trkpt lat="59.4098651" lon="17.7726819">
        <ele>44.8386</ele>
        <time>2011-08-11T21:53:45Z</time>
      </trkpt>
      <trkpt lat="59.4097625" lon="17.7724029">
        <ele>45.7999</ele>
        <time>2011-08-11T21:53:50Z</time>
      </trkpt>
      <trkpt lat="59.4096965" lon="17.7720536">
        <ele>44.8386</ele>
        <time>2011-08-11T21:53:55Z</time>
      </trkpt>
      <trkpt lat="59.4097053" lon="17.7717709">
        <ele>41.9547</ele>
        <time>2011-08-11T21:53:59Z</time>
      </trkpt>
      <trkpt lat="59.4097347" lon="17.7714622">
        <ele>42.4354</ele>
        <time>2011-08-11T21:54:04Z</time>
      </trkpt>
      <trkpt lat="59.4098131" lon="17.7711048">
        <ele>45.3192</ele>
        <time>2011-08-11T21:54:09Z</time>
      </trkpt>
      <trkpt lat="59.4099093" lon="17.770922">
        <ele>45.3192</ele>
        <time>2011-08-11T21:54:13Z</time>
      </trkpt>
      <trkpt lat="59.4100794" lon="17.7706343">
        <ele>44.8386</ele>
        <time>2011-08-11T21:54:19Z</time>
      </trkpt>
      <trkpt lat="59.4101424" lon="17.770551">
        <ele>43.8773</ele>
        <time>2011-08-11T21:54:21Z</time>
      </trkpt>
      <trkpt lat="59.4102839" lon="17.7702355">
        <ele>43.3966</ele>
        <time>2011-08-11T21:54:27Z</time>
      </trkpt>
      <trkpt lat="59.4103005" lon="17.7699299">
        <ele>39.5513</ele>
        <time>2011-08-11T21:54:31Z</time>
      </trkpt>
      <trkpt lat="59.4102761" lon="17.7695081">
        <ele>37.1481</ele>
        <time>2011-08-11T21:54:37Z</time>
      </trkpt>
      <trkpt lat="59.4103044" lon="17.7692528">
        <ele>35.2255</ele>
        <time>2011-08-11T21:54:41Z</time>
      </trkpt>
      <trkpt lat="59.4103124" lon="17.7689958">
        <ele>33.3029</ele>
        <time>2011-08-11T21:54:45Z</time>
      </trkpt>
      <trkpt lat="59.4103165" lon="17.7687109">
        <ele>30.8995</ele>
        <time>2011-08-11T21:54:49Z</time>
      </trkpt>
      <trkpt lat="59.4103897" lon="17.7682804">
        <ele>30.4188</ele>
        <time>2011-08-11T21:54:55Z</time>
      </trkpt>
      <trkpt lat="59.4103798" lon="17.7680591">
        <ele>30.4188</ele>
        <time>2011-08-11T21:54:58Z</time>
      </trkpt>
      <trkpt lat="59.4103616" lon="17.7679279">
        <ele>29.9381</ele>
        <time>2011-08-11T21:55:01Z</time>
      </trkpt>
      <trkpt lat="59.4103577" lon="17.7678721">
        <ele>30.4188</ele>
        <time>2011-08-11T21:55:02Z</time>
      </trkpt>
      <trkpt lat="59.4103486" lon="17.7678242">
        <ele>30.4188</ele>
        <time>2011-08-11T21:55:03Z</time>
      </trkpt>
      <trkpt lat="59.4103422" lon="17.7677116">
        <ele>31.3801</ele>
        <time>2011-08-11T21:55:05Z</time>
      </trkpt>
      <trkpt lat="59.410176" lon="17.7677054">
        <ele>37.1481</ele>
        <time>2011-08-11T21:55:09Z</time>
      </trkpt>
      <trkpt lat="59.4099916" lon="17.7676971">
        <ele>38.5901</ele>
        <time>2011-08-11T21:55:14Z</time>
      </trkpt>
      <trkpt lat="59.4099197" lon="17.7677214">
        <ele>37.1481</ele>
        <time>2011-08-11T21:55:16Z</time>
      </trkpt>
      <trkpt lat="59.4098658" lon="17.7679913">
        <ele>40.0321</ele>
        <time>2011-08-11T21:55:21Z</time>
      </trkpt>
      <trkpt lat="59.4098969" lon="17.7682265">
        <ele>42.4354</ele>
        <time>2011-08-11T21:55:26Z</time>
      </trkpt>
      <trkpt lat="59.4099118" lon="17.7684023">
        <ele>44.358</ele>
        <time>2011-08-11T21:55:29Z</time>
      </trkpt>
      <trkpt lat="59.4097204" lon="17.7686145">
        <ele>41.9547</ele>
        <time>2011-08-11T21:55:34Z</time>
      </trkpt>
      <trkpt lat="59.4096821" lon="17.7686322">
        <ele>41.9547</ele>
        <time>2011-08-11T21:55:35Z</time>
      </trkpt>
      <trkpt lat="59.4094727" lon="17.7687182">
        <ele>43.3966</ele>
        <time>2011-08-11T21:55:41Z</time>
      </trkpt>
      <trkpt lat="59.4093233" lon="17.7687451">
        <ele>45.7999</ele>
        <time>2011-08-11T21:55:45Z</time>
      </trkpt>
      <trkpt lat="59.4092129" lon="17.7685158">
        <ele>43.3966</ele>
        <time>2011-08-11T21:55:50Z</time>
      </trkpt>
      <trkpt lat="59.4091076" lon="17.7683419">
        <ele>44.358</ele>
        <time>2011-08-11T21:55:55Z</time>
      </trkpt>
      <trkpt lat="59.4090158" lon="17.7681998">
        <ele>44.8386</ele>
        <time>2011-08-11T21:55:59Z</time>
      </trkpt>
      <trkpt lat="59.4089741" lon="17.7681172">
        <ele>43.3966</ele>
        <time>2011-08-11T21:56:01Z</time>
      </trkpt>
      <trkpt lat="59.4088044" lon="17.7679184">
        <ele>43.3966</ele>
        <time>2011-08-11T21:56:07Z</time>
      </trkpt>
      <trkpt lat="59.4086457" lon="17.767748">
        <ele>41.9547</ele>
        <time>2011-08-11T21:56:12Z</time>
      </trkpt>
      <trkpt lat="59.4084735" lon="17.7677453">
        <ele>41.474</ele>
        <time>2011-08-11T21:56:17Z</time>
      </trkpt>
      <trkpt lat="59.4082959" lon="17.7678586">
        <ele>40.5128</ele>
        <time>2011-08-11T21:56:22Z</time>
      </trkpt>
      <trkpt lat="59.4081083" lon="17.7680152">
        <ele>40.9934</ele>
        <time>2011-08-11T21:56:27Z</time>
      </trkpt>
      <trkpt lat="59.4079426" lon="17.768067">
        <ele>40.5128</ele>
        <time>2011-08-11T21:56:32Z</time>
      </trkpt>
      <trkpt lat="59.4078073" lon="17.7681609">
        <ele>40.5128</ele>
        <time>2011-08-11T21:56:36Z</time>
      </trkpt>
      <trkpt lat="59.4076199" lon="17.7682379">
        <ele>38.5901</ele>
        <time>2011-08-11T21:56:41Z</time>
      </trkpt>
      <trkpt lat="59.4074168" lon="17.7683037">
        <ele>39.5513</ele>
        <time>2011-08-11T21:56:46Z</time>
      </trkpt>
      <trkpt lat="59.4072302" lon="17.7683417">
        <ele>39.0707</ele>
        <time>2011-08-11T21:56:51Z</time>
      </trkpt>
      <trkpt lat="59.4071251" lon="17.7684529">
        <ele>38.5901</ele>
        <time>2011-08-11T21:56:55Z</time>
      </trkpt>
      <trkpt lat="59.4069774" lon="17.7687672">
        <ele>41.474</ele>
        <time>2011-08-11T21:57:00Z</time>
      </trkpt>
      <trkpt lat="59.4069132" lon="17.7689944">
        <ele>40.9934</ele>
        <time>2011-08-11T21:57:05Z</time>
      </trkpt>
      <trkpt lat="59.4068582" lon="17.7692254">
        <ele>41.474</ele>
        <time>2011-08-11T21:57:10Z</time>
      </trkpt>
      <trkpt lat="59.4067696" lon="17.7694175">
        <ele>42.916</ele>
        <time>2011-08-11T21:57:14Z</time>
      </trkpt>
      <trkpt lat="59.4066905" lon="17.7696279">
        <ele>44.358</ele>
        <time>2011-08-11T21:57:18Z</time>
      </trkpt>
      <trkpt lat="59.4066103" lon="17.7699383">
        <ele>43.8773</ele>
        <time>2011-08-11T21:57:24Z</time>
      </trkpt>
      <trkpt lat="59.4065449" lon="17.770149">
        <ele>44.358</ele>
        <time>2011-08-11T21:57:28Z</time>
      </trkpt>
      <trkpt lat="59.4064375" lon="17.7704292">
        <ele>44.8386</ele>
        <time>2011-08-11T21:57:33Z</time>
      </trkpt>
      <trkpt lat="59.4063366" lon="17.7706918">
        <ele>44.358</ele>
        <time>2011-08-11T21:57:38Z</time>
      </trkpt>
      <trkpt lat="59.4062508" lon="17.7709405">
        <ele>41.474</ele>
        <time>2011-08-11T21:57:43Z</time>
      </trkpt>
      <trkpt lat="59.4061367" lon="17.7711238">
        <ele>39.0707</ele>
        <time>2011-08-11T21:57:47Z</time>
      </trkpt>
      <trkpt lat="59.4059979" lon="17.7713487">
        <ele>40.5128</ele>
        <time>2011-08-11T21:57:51Z</time>
      </trkpt>
      <trkpt lat="59.4059241" lon="17.7714487">
        <ele>39.0707</ele>
        <time>2011-08-11T21:57:54Z</time>
      </trkpt>
      <trkpt lat="59.4057643" lon="17.7717059">
        <ele>39.5513</ele>
        <time>2011-08-11T21:58:00Z</time>
      </trkpt>
      <trkpt lat="59.4056601" lon="17.7718543">
        <ele>40.0321</ele>
        <time>2011-08-11T21:58:04Z</time>
      </trkpt>
      <trkpt lat="59.4055477" lon="17.7720086">
        <ele>39.0707</ele>
        <time>2011-08-11T21:58:08Z</time>
      </trkpt>
      <trkpt lat="59.4053952" lon="17.7721961">
        <ele>41.474</ele>
        <time>2011-08-11T21:58:13Z</time>
      </trkpt>
      <trkpt lat="59.4052094" lon="17.772382">
        <ele>43.3966</ele>
        <time>2011-08-11T21:58:18Z</time>
      </trkpt>
      <trkpt lat="59.4050846" lon="17.7724633">
        <ele>43.8773</ele>
        <time>2011-08-11T21:58:22Z</time>
      </trkpt>
      <trkpt lat="59.4049929" lon="17.7725977">
        <ele>43.8773</ele>
        <time>2011-08-11T21:58:26Z</time>
      </trkpt>
      <trkpt lat="59.404896" lon="17.7727752">
        <ele>40.9934</ele>
        <time>2011-08-11T21:58:31Z</time>
      </trkpt>
      <trkpt lat="59.4047775" lon="17.7730199">
        <ele>41.474</ele>
        <time>2011-08-11T21:58:36Z</time>
      </trkpt>
      <trkpt lat="59.4046838" lon="17.7731617">
        <ele>39.0707</ele>
        <time>2011-08-11T21:58:41Z</time>
      </trkpt>
      <trkpt lat="59.4045293" lon="17.7734632">
        <ele>39.0707</ele>
        <time>2011-08-11T21:58:46Z</time>
      </trkpt>
      <trkpt lat="59.4044504" lon="17.7736316">
        <ele>40.5128</ele>
        <time>2011-08-11T21:58:50Z</time>
      </trkpt>
      <trkpt lat="59.4042975" lon="17.7738886">
        <ele>39.5513</ele>
        <time>2011-08-11T21:58:56Z</time>
      </trkpt>
      <trkpt lat="59.4041885" lon="17.7741231">
        <ele>41.9547</ele>
        <time>2011-08-11T21:59:00Z</time>
      </trkpt>
      <trkpt lat="59.4040984" lon="17.7743248">
        <ele>40.5128</ele>
        <time>2011-08-11T21:59:05Z</time>
      </trkpt>
      <trkpt lat="59.4040217" lon="17.7744843">
        <ele>36.1868</ele>
        <time>2011-08-11T21:59:09Z</time>
      </trkpt>
      <trkpt lat="59.4038676" lon="17.774749">
        <ele>39.5513</ele>
        <time>2011-08-11T21:59:14Z</time>
      </trkpt>
      <trkpt lat="59.4037505" lon="17.7750049">
        <ele>43.3966</ele>
        <time>2011-08-11T21:59:19Z</time>
      </trkpt>
      <trkpt lat="59.4036179" lon="17.7752519">
        <ele>44.358</ele>
        <time>2011-08-11T21:59:25Z</time>
      </trkpt>
      <trkpt lat="59.4034678" lon="17.7755332">
        <ele>47.7225</ele>
        <time>2011-08-11T21:59:31Z</time>
      </trkpt>
      <trkpt lat="59.4033937" lon="17.7756949">
        <ele>48.684</ele>
        <time>2011-08-11T21:59:35Z</time>
      </trkpt>
      <trkpt lat="59.4034373" lon="17.7758585">
        <ele>44.358</ele>
        <time>2011-08-11T21:59:39Z</time>
      </trkpt>
      <trkpt lat="59.4035424" lon="17.7759924">
        <ele>41.9547</ele>
        <time>2011-08-11T21:59:44Z</time>
      </trkpt>
      <trkpt lat="59.4035589" lon="17.7760036">
        <ele>41.9547</ele>
        <time>2011-08-11T21:59:45Z</time>
      </trkpt>
      <trkpt lat="59.4036896" lon="17.7759615">
        <ele>39.5513</ele>
        <time>2011-08-11T21:59:50Z</time>
      </trkpt>
      <trkpt lat="59.4038536" lon="17.7759086">
        <ele>37.1481</ele>
        <time>2011-08-11T21:59:55Z</time>
      </trkpt>
      <trkpt lat="59.4039543" lon="17.7757491">
        <ele>37.1481</ele>
        <time>2011-08-11T22:00:00Z</time>
      </trkpt>
      <trkpt lat="59.4039707" lon="17.7757171">
        <ele>35.7061</ele>
        <time>2011-08-11T22:00:01Z</time>
      </trkpt>
      <trkpt lat="59.4040672" lon="17.7754668">
        <ele>38.1094</ele>
        <time>2011-08-11T22:00:07Z</time>
      </trkpt>
      <trkpt lat="59.4041588" lon="17.7752757">
        <ele>42.916</ele>
        <time>2011-08-11T22:00:12Z</time>
      </trkpt>
      <trkpt lat="59.4042598" lon="17.775159">
        <ele>42.916</ele>
        <time>2011-08-11T22:00:16Z</time>
      </trkpt>
      <trkpt lat="59.404416" lon="17.7751062">
        <ele>41.9547</ele>
        <time>2011-08-11T22:00:21Z</time>
      </trkpt>
      <trkpt lat="59.4045255" lon="17.7750209">
        <ele>41.9547</ele>
        <time>2011-08-11T22:00:25Z</time>
      </trkpt>
      <trkpt lat="59.404647" lon="17.7748659">
        <ele>41.9547</ele>
        <time>2011-08-11T22:00:30Z</time>
      </trkpt>
      <trkpt lat="59.4047768" lon="17.7745774">
        <ele>44.358</ele>
        <time>2011-08-11T22:00:36Z</time>
      </trkpt>
      <trkpt lat="59.4048847" lon="17.7743199">
        <ele>45.7999</ele>
        <time>2011-08-11T22:00:41Z</time>
      </trkpt>
      <trkpt lat="59.4049721" lon="17.7741502">
        <ele>47.7225</ele>
        <time>2011-08-11T22:00:45Z</time>
      </trkpt>
      <trkpt lat="59.4051378" lon="17.7741484">
        <ele>47.2418</ele>
        <time>2011-08-11T22:00:49Z</time>
      </trkpt>
      <trkpt lat="59.4053119" lon="17.7742421">
        <ele>49.1646</ele>
        <time>2011-08-11T22:00:54Z</time>
      </trkpt>
      <trkpt lat="59.4054797" lon="17.7743343">
        <ele>51.0872</ele>
        <time>2011-08-11T22:00:59Z</time>
      </trkpt>
      <trkpt lat="59.4055799" lon="17.7744167">
        <ele>51.0872</ele>
        <time>2011-08-11T22:01:03Z</time>
      </trkpt>
      <trkpt lat="59.4057065" lon="17.7745463">
        <ele>52.5292</ele>
        <time>2011-08-11T22:01:08Z</time>
      </trkpt>
      <trkpt lat="59.4058445" lon="17.7746712">
        <ele>55.8938</ele>
        <time>2011-08-11T22:01:13Z</time>
      </trkpt>
      <trkpt lat="59.4059466" lon="17.7747645">
        <ele>53.9712</ele>
        <time>2011-08-11T22:01:17Z</time>
      </trkpt>
      <trkpt lat="59.4060899" lon="17.7748091">
        <ele>53.9712</ele>
        <time>2011-08-11T22:01:22Z</time>
      </trkpt>
      <trkpt lat="59.4061982" lon="17.7747804">
        <ele>53.9712</ele>
        <time>2011-08-11T22:01:27Z</time>
      </trkpt>
      <trkpt lat="59.406277" lon="17.7747053">
        <ele>53.4905</ele>
        <time>2011-08-11T22:01:31Z</time>
      </trkpt>
      <trkpt lat="59.4063701" lon="17.7746452">
        <ele>55.4131</ele>
        <time>2011-08-11T22:01:35Z</time>
      </trkpt>
      <trkpt lat="59.4065185" lon="17.7745857">
        <ele>55.8938</ele>
        <time>2011-08-11T22:01:40Z</time>
      </trkpt>
      <trkpt lat="59.4066735" lon="17.7744702">
        <ele>55.4131</ele>
        <time>2011-08-11T22:01:46Z</time>
      </trkpt>
      <trkpt lat="59.4067935" lon="17.7744519">
        <ele>56.3745</ele>
        <time>2011-08-11T22:01:50Z</time>
      </trkpt>
      <trkpt lat="59.4069363" lon="17.7744883">
        <ele>55.4131</ele>
        <time>2011-08-11T22:01:54Z</time>
      </trkpt>
      <trkpt lat="59.4070867" lon="17.7745407">
        <ele>55.4131</ele>
        <time>2011-08-11T22:01:58Z</time>
      </trkpt>
      <trkpt lat="59.407208" lon="17.7745971">
        <ele>56.3745</ele>
        <time>2011-08-11T22:02:02Z</time>
      </trkpt>
      <trkpt lat="59.407379" lon="17.7746788">
        <ele>59.2584</ele>
        <time>2011-08-11T22:02:08Z</time>
      </trkpt>
      <trkpt lat="59.4076069" lon="17.7748345">
        <ele>60.7003</ele>
        <time>2011-08-11T22:02:15Z</time>
      </trkpt>
      <trkpt lat="59.4077283" lon="17.7749661">
        <ele>60.7003</ele>
        <time>2011-08-11T22:02:19Z</time>
      </trkpt>
      <trkpt lat="59.4078523" lon="17.775138">
        <ele>61.181</ele>
        <time>2011-08-11T22:02:24Z</time>
      </trkpt>
      <trkpt lat="59.4079664" lon="17.7753025">
        <ele>60.2197</ele>
        <time>2011-08-11T22:02:28Z</time>
      </trkpt>
      <trkpt lat="59.4081456" lon="17.7755128">
        <ele>62.1423</ele>
        <time>2011-08-11T22:02:34Z</time>
      </trkpt>
      <trkpt lat="59.4082764" lon="17.7756233">
        <ele>62.6229</ele>
        <time>2011-08-11T22:02:38Z</time>
      </trkpt>
      <trkpt lat="59.408305" lon="17.7756548">
        <ele>61.6617</ele>
        <time>2011-08-11T22:02:39Z</time>
      </trkpt>
      <trkpt lat="59.4085175" lon="17.77566">
        <ele>60.2197</ele>
        <time>2011-08-11T22:02:44Z</time>
      </trkpt>
      <trkpt lat="59.4086526" lon="17.7755855">
        <ele>59.2584</ele>
        <time>2011-08-11T22:02:48Z</time>
      </trkpt>
      <trkpt lat="59.4088205" lon="17.7754586">
        <ele>56.3745</ele>
        <time>2011-08-11T22:02:53Z</time>
      </trkpt>
      <trkpt lat="59.4090049" lon="17.7753866">
        <ele>54.4518</ele>
        <time>2011-08-11T22:02:58Z</time>
      </trkpt>
      <trkpt lat="59.4091646" lon="17.7753467">
        <ele>54.4518</ele>
        <time>2011-08-11T22:03:03Z</time>
      </trkpt>
      <trkpt lat="59.4093754" lon="17.7754035">
        <ele>56.3745</ele>
        <time>2011-08-11T22:03:08Z</time>
      </trkpt>
      <trkpt lat="59.4094669" lon="17.7755021">
        <ele>57.8165</ele>
        <time>2011-08-11T22:03:10Z</time>
      </trkpt>
      <trkpt lat="59.4095312" lon="17.7755886">
        <ele>59.2584</ele>
        <time>2011-08-11T22:03:12Z</time>
      </trkpt>
      <trkpt lat="59.4096118" lon="17.7755941">
        <ele>57.3358</ele>
        <time>2011-08-11T22:03:16Z</time>
      </trkpt>
      <trkpt lat="59.4097497" lon="17.7753483">
        <ele>53.4905</ele>
        <time>2011-08-11T22:03:21Z</time>
      </trkpt>
      <trkpt lat="59.4098188" lon="17.7750783">
        <ele>51.5679</ele>
        <time>2011-08-11T22:03:25Z</time>
      </trkpt>
      <trkpt lat="59.4099034" lon="17.7748396">
        <ele>48.684</ele>
        <time>2011-08-11T22:03:29Z</time>
      </trkpt>
      <trkpt lat="59.4100034" lon="17.7745474">
        <ele>45.7999</ele>
        <time>2011-08-11T22:03:34Z</time>
      </trkpt>
      <trkpt lat="59.410063" lon="17.7743302">
        <ele>42.916</ele>
        <time>2011-08-11T22:03:38Z</time>
      </trkpt>
      <trkpt lat="59.4100996" lon="17.7740048">
        <ele>41.9547</ele>
        <time>2011-08-11T22:03:43Z</time>
      </trkpt>
      <trkpt lat="59.4100581" lon="17.7736688">
        <ele>41.9547</ele>
        <time>2011-08-11T22:03:48Z</time>
      </trkpt>
      <trkpt lat="59.4099902" lon="17.7732916">
        <ele>44.8386</ele>
        <time>2011-08-11T22:03:53Z</time>
      </trkpt>
      <trkpt lat="59.4099407" lon="17.7728882">
        <ele>46.2806</ele>
        <time>2011-08-11T22:03:58Z</time>
      </trkpt>
      <trkpt lat="59.4098361" lon="17.7725525">
        <ele>47.7225</ele>
        <time>2011-08-11T22:04:03Z</time>
      </trkpt>
      <trkpt lat="59.4097234" lon="17.772193">
        <ele>50.126</ele>
        <time>2011-08-11T22:04:08Z</time>
      </trkpt>
      <trkpt lat="59.4096947" lon="17.7716754">
        <ele>50.6066</ele>
        <time>2011-08-11T22:04:14Z</time>
      </trkpt>
      <trkpt lat="59.4097306" lon="17.7713922">
        <ele>49.6453</ele>
        <time>2011-08-11T22:04:17Z</time>
      </trkpt>
      <trkpt lat="59.4098289" lon="17.7711188">
        <ele>49.6453</ele>
        <time>2011-08-11T22:04:21Z</time>
      </trkpt>
      <trkpt lat="59.4098829" lon="17.7710208">
        <ele>50.6066</ele>
        <time>2011-08-11T22:04:23Z</time>
      </trkpt>
      <trkpt lat="59.4100694" lon="17.7707199">
        <ele>44.358</ele>
        <time>2011-08-11T22:04:29Z</time>
      </trkpt>
      <trkpt lat="59.4101071" lon="17.7706697">
        <ele>43.8773</ele>
        <time>2011-08-11T22:04:30Z</time>
      </trkpt>
      <trkpt lat="59.4101742" lon="17.7705443">
        <ele>41.9547</ele>
        <time>2011-08-11T22:04:32Z</time>
      </trkpt>
      <trkpt lat="59.410244" lon="17.7703643">
        <ele>40.5128</ele>
        <time>2011-08-11T22:04:35Z</time>
      </trkpt>
      <trkpt lat="59.4103355" lon="17.770025">
        <ele>36.1868</ele>
        <time>2011-08-11T22:04:40Z</time>
      </trkpt>
      <trkpt lat="59.4103073" lon="17.7698124">
        <ele>36.6675</ele>
        <time>2011-08-11T22:04:43Z</time>
      </trkpt>
      <trkpt lat="59.4103008" lon="17.7694263">
        <ele>34.2642</ele>
        <time>2011-08-11T22:04:48Z</time>
      </trkpt>
      <trkpt lat="59.4103104" lon="17.769028">
        <ele>32.3416</ele>
        <time>2011-08-11T22:04:53Z</time>
      </trkpt>
      <trkpt lat="59.4103329" lon="17.7687952">
        <ele>30.4188</ele>
        <time>2011-08-11T22:04:56Z</time>
      </trkpt>
      <trkpt lat="59.4103736" lon="17.7684841">
        <ele>28.4962</ele>
        <time>2011-08-11T22:05:00Z</time>
      </trkpt>
      <trkpt lat="59.4103865" lon="17.7683446">
        <ele>28.0155</ele>
        <time>2011-08-11T22:05:02Z</time>
      </trkpt>
    </trkseg>
  </trk>
</gpx>